Time;durP1;ratioP1;P1;durP2;ratioP2;P2;SDS_P1;SDS_P2;PMS_P1;PMS_P2;Temp;Humidity;BMP_temperature;BMP_pressure;BME280_temperature;BME280_humidity;BME280_pressure;Samples;Min_cycle;Max_cycle;Signal;HPM_P1;HPM_P2
2022/01/21 00:01:51;;;;;;;14.90;2.45;;;0.10;99.90;;;;;;5065156;28;20100;-80
2022/01/21 00:04:17;;;;;;;14.48;3.47;;;-0.20;99.90;;;;;;5057712;28;20048;-80
2022/01/21 00:06:42;;;;;;;15.82;2.90;;;0.70;99.90;;;;;;5038676;28;20040;-79
2022/01/21 00:09:09;;;;;;;23.10;2.65;;;-0.20;99.90;;;;;;5037940;28;20055;-81
2022/01/21 00:11:36;;;;;;;;;;;-0.10;99.90;;;;;;5054879;28;20538;-80
2022/01/21 00:14:02;;;;;;;12.15;2.50;;;-0.10;99.90;;;;;;5053843;28;19932;-83
2022/01/21 00:16:28;;;;;;;;;;;-0.10;99.90;;;;;;5055045;28;20048;-80
2022/01/21 00:19:00;;;;;;;13.32;2.60;;;-0.10;99.90;;;;;;5054750;28;20274;-81
2022/01/21 00:32:24;;;;;;;15.55;2.22;;;0.00;99.90;;;;;;5071195;28;20047;-80
2022/01/21 00:34:50;;;;;;;11.23;2.10;;;0.00;99.90;;;;;;5054560;28;20037;-81
2022/01/21 00:37:16;;;;;;;23.30;3.05;;;0.00;99.90;;;;;;5037818;28;20052;-80
2022/01/21 00:39:44;;;;;;;13.13;2.25;;;-0.10;99.90;;;;;;5037881;28;20137;-80
2022/01/21 00:44:36;;;;;;;16.17;2.42;;;0.00;99.90;;;;;;5073142;28;20048;-82
2022/01/21 00:47:02;;;;;;;15.15;2.50;;;0.00;99.90;;;;;;5073567;28;20378;-82
2022/01/21 00:49:28;;;;;;;19.00;2.28;;;0.00;99.90;;;;;;5058038;28;20048;-80
2022/01/21 00:51:53;;;;;;;17.98;2.40;;;0.90;99.90;;;;;;5073889;28;20044;-80
2022/01/21 00:54:19;;;;;;;26.50;2.90;;;0.50;99.90;;;;;;5073477;28;20044;-80
2022/01/21 00:56:45;;;;;;;10.68;2.17;;;0.60;99.90;;;;;;5073876;28;20040;-80
2022/01/21 00:59:10;;;;;;;15.85;3.35;;;0.10;99.90;;;;;;5073243;28;20047;-80
2022/01/21 01:01:36;;;;;;;10.70;2.17;;;0.50;99.90;;;;;;5073995;28;20378;-80
2022/01/21 01:04:03;;;;;;;23.50;2.53;;;1.20;99.90;;;;;;5057159;28;20043;-83
2022/01/21 01:06:29;;;;;;;19.88;2.63;;;0.30;99.90;;;;;;5057688;28;20043;-80
2022/01/21 01:08:56;;;;;;;16.63;2.85;;;0.50;99.90;;;;;;5057716;28;20390;-80
2022/01/21 01:22:06;;;;;;;16.05;2.50;;;0.80;99.90;;;;;;5073967;28;20552;-80
2022/01/21 01:27:36;;;;;;;20.55;4.38;;;1.00;99.90;;;;;;5053294;28;20052;-80
2022/01/21 01:30:03;;;;;;;9.50;2.00;;;1.00;99.90;;;;;;5053293;28;20135;-84
2022/01/21 01:32:30;;;;;;;14.60;2.63;;;1.10;99.90;;;;;;5053844;28;20044;-80
2022/01/21 01:34:56;;;;;;;13.05;2.33;;;1.10;99.90;;;;;;5037457;28;20494;-80
2022/01/21 01:37:36;;;;;;;13.70;2.70;;;1.40;99.90;;;;;;5053424;28;20048;-80
2022/01/21 01:50:49;;;;;;;17.35;2.50;;;1.10;99.90;;;;;;5053972;28;20386;-80
2022/01/21 01:53:18;;;;;;;19.55;2.25;;;1.80;99.90;;;;;;5059898;28;20470;-80
2022/01/21 01:55:44;;;;;;;17.20;2.00;;;1.00;99.90;;;;;;5073604;28;20044;-80
2022/01/21 01:58:14;;;;;;;13.93;2.13;;;1.10;99.90;;;;;;5074387;28;20047;-82
2022/01/21 02:00:41;;;;;;;14.10;2.22;;;1.00;99.90;;;;;;5060781;28;20097;-80
2022/01/21 02:03:10;;;;;;;18.38;2.10;;;1.10;99.90;;;;;;5076808;28;20471;-82
2022/01/21 02:05:36;;;;;;;12.30;2.70;;;1.00;99.90;;;;;;5077241;28;20075;-82
2022/01/21 02:08:02;;;;;;;12.95;2.47;;;1.00;99.90;;;;;;5077746;28;20052;-80
2022/01/21 02:10:28;;;;;;;14.65;2.13;;;0.90;99.90;;;;;;5060038;28;20056;-80
2022/01/21 02:13:05;;;;;;;22.33;3.63;;;0.90;99.90;;;;;;5062436;28;20074;-80
2022/01/21 02:15:34;;;;;;;17.85;2.33;;;0.90;99.90;;;;;;5076275;28;20044;-81
2022/01/21 02:23:48;;;;;;;14.52;2.00;;;1.00;99.90;;;;;;4996614;28;20053;-82
2022/01/21 02:26:14;;;;;;;17.23;2.45;;;1.00;99.90;;;;;;4996096;28;20502;-81
2022/01/21 02:28:42;;;;;;;8.23;2.25;;;1.00;99.90;;;;;;4991606;28;20052;-80
2022/01/21 02:31:08;;;;;;;21.20;2.33;;;1.00;99.90;;;;;;5023314;28;20146;-83
2022/01/21 02:33:34;;;;;;;11.73;2.10;;;1.10;99.90;;;;;;5056994;28;20478;-80
2022/01/21 02:35:59;;;;;;;15.07;2.35;;;1.10;99.90;;;;;;5039866;28;20128;-80
2022/01/21 02:38:25;;;;;;;18.70;1.98;;;1.90;99.90;;;;;;5056535;28;20557;-80
2022/01/21 02:40:51;;;;;;;21.88;3.58;;;1.10;99.90;;;;;;5040003;28;20425;-81
2022/01/21 02:43:17;;;;;;;15.35;2.03;;;1.60;99.90;;;;;;5039654;28;20040;-80
2022/01/21 02:45:46;;;;;;;;;;;1.00;99.90;;;;;;5039259;28;20082;-81
2022/01/21 02:48:12;;;;;;;16.88;1.80;;;0.90;99.90;;;;;;5055923;28;20247;-80
2022/01/21 02:50:37;;;;;;;;;;;0.90;99.90;;;;;;5056151;28;20141;-81
2022/01/21 02:55:47;;;;;;;9.70;1.70;;;0.90;99.90;;;;;;5055215;28;20122;-82
2022/01/21 02:58:13;;;;;;;6.50;1.27;;;0.90;99.90;;;;;;5065909;28;20508;-80
2022/01/21 03:00:39;;;;;;;16.90;2.65;;;1.00;99.90;;;;;;5059581;28;20370;-80
2022/01/21 03:03:05;;;;;;;14.32;2.25;;;1.00;99.90;;;;;;5076668;28;20044;-81
2022/01/21 03:05:34;;;;;;;11.60;1.75;;;1.00;99.90;;;;;;5060072;28;20102;-80
2022/01/21 03:08:00;;;;;;;5.28;1.33;;;1.10;99.90;;;;;;5074513;28;20048;-80
2022/01/21 03:10:26;;;;;;;9.95;1.98;;;1.20;99.90;;;;;;5039224;28;20040;-81
2022/01/21 03:12:52;;;;;;;;;;;1.30;99.90;;;;;;5056713;28;20044;-80
2022/01/21 03:15:18;;;;;;;14.23;1.67;;;1.70;99.90;;;;;;5055155;28;19916;-80
2022/01/21 03:17:43;;;;;;;11.38;1.98;;;1.40;99.90;;;;;;5051859;28;20047;-80
2022/01/21 03:20:10;;;;;;;16.83;1.80;;;1.40;99.90;;;;;;5076123;28;20113;-80
2022/01/21 03:22:36;;;;;;;9.40;1.83;;;1.30;99.90;;;;;;5075815;28;20051;-80
2022/01/21 03:25:04;;;;;;;13.45;2.13;;;1.90;99.90;;;;;;5075978;28;20470;-80
2022/01/21 03:27:30;;;;;;;12.25;1.70;;;1.30;99.90;;;;;;5075114;28;20090;-81
2022/01/21 03:29:57;;;;;;;11.98;1.38;;;1.20;99.90;;;;;;5075340;28;20102;-80
2022/01/21 03:32:23;;;;;;;10.43;1.52;;;1.20;99.90;;;;;;5074893;28;20910;-81
2022/01/21 03:34:49;;;;;;;7.82;1.23;;;2.00;99.90;;;;;;5059440;28;20774;-80
2022/01/21 03:37:15;;;;;;;17.65;3.15;;;1.90;99.90;;;;;;5074311;28;20059;-81
2022/01/21 03:39:41;;;;;;;15.23;1.50;;;1.60;99.90;;;;;;5059851;28;20352;-81
2022/01/21 03:42:07;;;;;;;7.80;1.30;;;1.20;99.90;;;;;;5061205;28;20056;-81
2022/01/21 03:44:32;;;;;;;6.68;1.20;;;1.10;99.90;;;;;;5054369;28;20076;-81
2022/01/21 03:46:58;;;;;;;7.15;1.58;;;1.10;99.90;;;;;;5073020;28;20084;-81
2022/01/21 03:49:24;;;;;;;8.73;1.65;;;1.30;99.90;;;;;;5062244;28;20036;-80
2022/01/21 03:51:50;;;;;;;12.23;2.70;;;1.00;99.90;;;;;;5075529;28;20071;-80
2022/01/21 03:54:15;;;;;;;6.88;1.23;;;1.00;99.90;;;;;;5058749;28;20046;-84
2022/01/21 03:56:41;;;;;;;6.45;1.45;;;1.00;99.90;;;;;;5058376;28;20079;-81
2022/01/21 03:59:07;;;;;;;12.77;2.17;;;1.20;99.90;;;;;;5057337;28;20059;-80
2022/01/21 04:01:33;;;;;;;10.32;1.40;;;1.10;99.90;;;;;;5021471;28;20127;-80
2022/01/21 04:03:59;;;;;;;10.20;1.85;;;1.10;99.90;;;;;;5056206;28;20040;-81
2022/01/21 04:06:24;;;;;;;5.88;1.40;;;1.10;99.90;;;;;;5058077;28;20055;-80
2022/01/21 04:08:50;;;;;;;15.73;2.72;;;1.10;99.90;;;;;;5074843;28;20043;-81
2022/01/21 04:11:16;;;;;;;8.57;1.50;;;1.10;99.90;;;;;;5074860;28;20040;-85
2022/01/21 04:13:43;;;;;;;10.75;1.77;;;1.00;99.90;;;;;;5074721;28;20036;-81
2022/01/21 04:16:09;;;;;;;16.20;2.85;;;1.00;99.90;;;;;;5073854;28;20500;-82
2022/01/21 04:18:34;;;;;;;11.95;1.65;;;1.00;99.90;;;;;;5057779;28;20051;-81
2022/01/21 04:21:00;;;;;;;9.90;1.50;;;1.50;99.90;;;;;;5057952;28;20044;-80
2022/01/21 04:23:26;;;;;;;14.32;2.35;;;1.00;99.90;;;;;;5090902;28;20152;-80
2022/01/21 04:25:53;;;;;;;9.07;1.65;;;1.00;99.90;;;;;;5054375;28;20044;-80
2022/01/21 04:28:19;;;;;;;8.00;1.48;;;1.00;99.90;;;;;;5054386;28;20056;-85
2022/01/21 04:30:45;;;;;;;7.72;1.42;;;1.10;99.90;;;;;;5071545;28;20038;-80
2022/01/21 04:33:11;;;;;;;7.88;1.42;;;1.10;99.90;;;;;;5054961;28;20139;-80
2022/01/21 04:35:38;;;;;;;12.40;1.52;;;1.10;99.90;;;;;;5054134;28;20411;-80
2022/01/21 04:38:07;;;;;;;17.40;1.80;;;1.00;99.90;;;;;;5038091;28;20474;-80
2022/01/21 04:40:39;;;;;;;6.47;1.40;;;1.00;99.90;;;;;;5054021;28;20087;-80
2022/01/21 04:48:34;;;;;;;10.52;1.70;;;1.10;99.90;;;;;;5054095;28;20482;-81
2022/01/21 04:51:15;;;;;;;12.32;1.42;;;0.80;99.90;;;;;;5091708;28;20036;-81
2022/01/21 04:53:43;;;;;;;11.57;2.58;;;0.80;99.90;;;;;;5074285;28;20055;-80
2022/01/21 04:56:09;;;;;;;10.23;1.98;;;0.80;99.90;;;;;;5074523;28;20426;-80
2022/01/21 04:58:35;;;;;;;;;;;0.70;99.90;;;;;;5057742;28;20389;-82
2022/01/21 05:01:04;;;;;;;5.35;1.45;;;0.80;99.90;;;;;;5073614;28;19916;-80
2022/01/21 05:03:31;;;;;;;13.88;1.85;;;0.80;99.90;;;;;;5073793;28;20429;-81
2022/01/21 05:05:56;;;;;;;13.95;1.80;;;0.80;99.90;;;;;;5057458;28;20456;-81
2022/01/21 05:08:28;;;;;;;10.25;1.52;;;0.90;99.90;;;;;;5074196;28;20131;-84
2022/01/21 05:10:53;;;;;;;12.43;1.45;;;0.80;99.90;;;;;;5057246;28;20059;-81
2022/01/21 05:13:24;;;;;;;16.60;2.03;;;0.90;99.90;;;;;;5057565;28;20048;-81
2022/01/21 05:16:18;;;;;;;11.43;1.30;;;0.90;99.90;;;;;;5057443;28;20044;-80
2022/01/21 05:18:44;;;;;;;16.60;1.60;;;1.30;99.90;;;;;;5072538;28;20048;-81
2022/01/21 05:21:10;;;;;;;23.90;2.08;;;0.90;99.90;;;;;;5074186;28;20050;-80
2022/01/21 05:23:35;;;;;;;16.65;2.03;;;0.90;99.90;;;;;;5073616;28;20032;-81
2022/01/21 05:26:01;;;;;;;13.52;1.98;;;0.90;99.90;;;;;;5074032;28;20043;-81
2022/01/21 05:28:27;;;;;;;16.88;2.08;;;0.80;99.90;;;;;;5058615;28;20127;-81
2022/01/21 05:30:53;;;;;;;14.75;1.85;;;0.80;99.90;;;;;;5052543;28;20052;-81
2022/01/21 05:33:18;;;;;;;9.40;1.83;;;0.70;99.90;;;;;;5021625;28;20036;-81
2022/01/21 05:35:44;;;;;;;11.90;2.05;;;0.70;99.90;;;;;;5075378;28;20335;-81
2022/01/21 05:38:10;;;;;;;11.82;2.65;;;0.90;99.90;;;;;;5052218;28;20044;-81
2022/01/21 05:40:37;;;;;;;9.85;2.88;;;0.70;99.90;;;;;;5067758;28;20439;-80
2022/01/21 05:43:03;;;;;;;12.88;1.63;;;0.60;99.90;;;;;;5057465;28;20123;-81
2022/01/21 05:48:13;;;;;;;16.08;1.98;;;0.60;99.90;;;;;;5057656;28;20052;-81
2022/01/21 05:50:38;;;;;;;13.40;1.70;;;0.60;99.90;;;;;;5040089;28;20043;-80
2022/01/21 05:53:08;;;;;;;9.95;1.90;;;0.60;99.90;;;;;;5057219;28;20055;-81
2022/01/21 05:55:39;;;;;;;15.50;2.80;;;0.60;99.90;;;;;;5056383;28;20475;-81
2022/01/21 05:58:05;;;;;;;17.48;2.63;;;0.60;99.90;;;;;;5049402;28;20047;-81
2022/01/21 06:00:31;;;;;;;14.45;1.92;;;1.10;99.90;;;;;;5075511;28;20051;-81
2022/01/21 06:02:56;;;;;;;14.63;2.00;;;0.60;99.90;;;;;;5076967;28;20044;-81
2022/01/21 06:05:22;;;;;;;8.13;1.92;;;0.60;99.90;;;;;;5076956;28;20044;-81
2022/01/21 06:07:48;;;;;;;36.63;4.90;;;0.60;99.90;;;;;;5070801;28;20604;-81
2022/01/21 06:10:14;;;;;;;16.50;2.78;;;0.70;99.90;;;;;;5039989;28;20056;-81
2022/01/21 06:12:39;;;;;;;20.63;3.05;;;0.70;99.90;;;;;;5073344;28;20411;-81
2022/01/21 06:15:05;;;;;;;15.68;2.33;;;0.70;99.90;;;;;;5054712;28;20076;-82
2022/01/21 06:17:31;;;;;;;14.70;1.85;;;0.70;99.90;;;;;;5055881;28;20094;-80
2022/01/21 06:19:57;;;;;;;13.77;2.10;;;1.40;99.90;;;;;;5068154;28;20097;-81
2022/01/21 06:22:22;;;;;;;10.70;1.83;;;0.60;99.90;;;;;;5040801;28;20378;-81
2022/01/21 06:24:48;;;;;;;16.45;2.10;;;1.40;99.90;;;;;;5061246;28;20047;-82
2022/01/21 06:27:15;;;;;;;14.35;1.67;;;0.70;99.90;;;;;;5070925;28;20055;-81
2022/01/21 06:29:41;;;;;;;23.27;3.40;;;0.70;99.90;;;;;;5025858;28;20036;-81
2022/01/21 06:32:07;;;;;;;12.52;1.83;;;0.70;99.90;;;;;;5072095;28;20046;-81
2022/01/21 06:34:33;;;;;;;21.40;2.00;;;0.70;99.90;;;;;;5069957;28;20048;-81
2022/01/21 06:36:58;;;;;;;10.82;1.85;;;0.70;99.90;;;;;;5041294;28;20044;-81
2022/01/21 06:39:24;;;;;;;15.73;2.45;;;0.70;99.90;;;;;;5067974;28;20386;-80
2022/01/21 06:41:51;;;;;;;10.57;2.17;;;0.70;99.90;;;;;;5070485;28;20049;-82
2022/01/21 06:44:16;;;;;;;13.13;2.25;;;0.70;99.90;;;;;;5075029;28;20050;-82
2022/01/21 06:46:43;;;;;;;14.93;1.92;;;0.60;99.90;;;;;;5075320;28;20032;-82
2022/01/21 06:49:09;;;;;;;10.52;1.90;;;0.60;99.90;;;;;;5056527;28;20116;-81
2022/01/21 06:51:34;;;;;;;11.02;1.70;;;1.00;99.90;;;;;;5068578;28;20119;-81
2022/01/21 06:54:00;;;;;;;10.50;1.90;;;0.60;99.90;;;;;;5053777;28;20040;-82
2022/01/21 06:56:26;;;;;;;9.18;2.03;;;0.60;99.90;;;;;;5057669;28;20044;-82
2022/01/21 06:58:51;;;;;;;9.88;1.48;;;0.70;99.90;;;;;;5057529;28;20132;-81
2022/01/21 07:01:17;;;;;;;15.90;2.05;;;1.20;99.90;;;;;;5042026;28;20462;-81
2022/01/21 07:03:43;;;;;;;13.27;1.85;;;0.60;99.90;;;;;;5056074;28;20080;-81
2022/01/21 07:06:09;;;;;;;;;;;0.70;99.90;;;;;;5062476;28;20052;-81
2022/01/21 07:08:35;;;;;;;14.50;1.88;;;0.70;99.90;;;;;;5055597;28;19990;-81
2022/01/21 07:11:00;;;;;;;8.18;1.80;;;0.70;99.90;;;;;;5041688;28;20131;-81
2022/01/21 07:13:26;;;;;;;9.15;1.88;;;0.70;99.90;;;;;;5057883;28;20101;-83
2022/01/21 07:15:52;;;;;;;15.80;1.73;;;0.70;99.90;;;;;;5058819;28;20040;-81
2022/01/21 07:18:17;;;;;;;12.80;1.80;;;0.70;99.90;;;;;;5039426;28;20079;-81
2022/01/21 07:20:43;;;;;;;12.32;1.60;;;0.60;99.90;;;;;;5065821;28;20101;-81
2022/01/21 07:23:09;;;;;;;10.23;2.10;;;0.60;99.90;;;;;;5070180;28;20475;-82
2022/01/21 07:25:36;;;;;;;13.38;2.10;;;0.60;99.90;;;;;;5036249;28;20075;-82
2022/01/21 07:28:04;;;;;;;13.75;1.70;;;0.60;99.90;;;;;;5074465;28;20091;-81
2022/01/21 07:30:30;;;;;;;12.00;2.42;;;0.60;99.90;;;;;;5070384;28;20043;-84
2022/01/21 07:32:56;;;;;;;15.15;2.22;;;0.70;99.90;;;;;;5030798;28;20037;-81
2022/01/21 07:35:21;;;;;;;12.00;1.63;;;1.00;99.90;;;;;;5039025;28;20077;-80
2022/01/21 07:37:47;;;;;;;9.50;2.05;;;0.70;99.90;;;;;;5054961;28;20123;-80
2022/01/21 07:40:14;;;;;;;18.85;2.47;;;0.70;99.90;;;;;;5078510;28;20036;-83
2022/01/21 07:42:39;;;;;;;14.10;2.45;;;0.70;99.90;;;;;;5071099;28;20062;-81
2022/01/21 07:45:05;;;;;;;6.20;1.95;;;0.70;99.90;;;;;;5061088;28;20458;-82
2022/01/21 07:47:31;;;;;;;12.10;1.75;;;0.70;99.90;;;;;;5072907;28;20036;-81
2022/01/21 07:49:57;;;;;;;13.70;1.92;;;0.70;99.90;;;;;;5056815;28;20064;-81
2022/01/21 07:52:23;;;;;;;17.35;2.30;;;0.70;99.90;;;;;;5046735;28;20567;-81
2022/01/21 07:54:49;;;;;;;14.75;1.83;;;0.70;99.90;;;;;;5043536;28;20044;-82
2022/01/21 07:57:15;;;;;;;12.55;1.50;;;0.70;99.90;;;;;;5052985;28;20036;-80
2022/01/21 07:59:40;;;;;;;10.18;2.22;;;1.40;99.90;;;;;;5072635;28;20097;-80
2022/01/21 08:02:06;;;;;;;7.60;1.63;;;0.70;99.90;;;;;;5044178;28;20043;-82
2022/01/21 08:04:32;;;;;;;12.25;1.50;;;0.80;99.90;;;;;;5054394;28;20040;-81
2022/01/21 08:06:58;;;;;;;5.65;1.52;;;0.70;99.90;;;;;;5053997;28;20502;-81
2022/01/21 08:09:25;;;;;;;9.20;1.65;;;1.50;99.90;;;;;;5057380;28;20063;-81
2022/01/21 08:11:51;;;;;;;16.40;4.10;;;0.70;99.90;;;;;;5059525;28;20376;-81
2022/01/21 08:14:17;;;;;;;11.75;1.70;;;0.70;99.90;;;;;;5064409;28;20646;-81
2022/01/21 08:16:43;;;;;;;11.02;2.10;;;0.70;99.90;;;;;;5064213;28;20048;-81
2022/01/21 08:19:09;;;;;;;15.10;1.73;;;0.70;99.90;;;;;;5062830;28;20047;-82
2022/01/21 08:21:35;;;;;;;7.18;1.58;;;0.60;99.90;;;;;;5057022;28;20044;-84
2022/01/21 08:24:01;;;;;;;7.45;1.80;;;0.70;99.90;;;;;;5049123;28;20066;-83
2022/01/21 08:26:28;;;;;;;12.02;1.92;;;1.00;99.90;;;;;;5054059;28;20072;-82
2022/01/21 08:28:55;;;;;;;14.82;1.95;;;0.70;99.90;;;;;;5056253;28;20048;-80
2022/01/21 08:31:21;;;;;;;6.90;1.70;;;0.80;99.90;;;;;;5072570;28;20044;-81
2022/01/21 08:33:48;;;;;;;14.40;1.83;;;1.60;99.90;;;;;;5058840;28;20043;-82
2022/01/21 08:36:14;;;;;;;12.73;2.72;;;1.50;99.90;;;;;;5074380;28;20110;-81
2022/01/21 08:38:40;;;;;;;18.10;2.35;;;0.80;99.90;;;;;;5057100;28;20055;-81
2022/01/21 08:41:07;;;;;;;13.90;2.88;;;0.80;99.90;;;;;;5057562;28;20108;-82
2022/01/21 08:43:32;;;;;;;11.57;1.90;;;0.80;99.90;;;;;;5040048;28;20040;-81
2022/01/21 08:45:58;;;;;;;15.98;2.25;;;0.80;99.90;;;;;;5072885;28;20036;-82
2022/01/21 08:48:24;;;;;;;7.68;1.90;;;0.90;99.90;;;;;;5073733;28;20052;-81
2022/01/21 08:50:50;;;;;;;15.65;3.03;;;1.00;99.90;;;;;;5073659;28;20093;-81
2022/01/21 08:56:00;;;;;;;11.40;2.28;;;1.00;99.90;;;;;;5073731;28;20051;-81
2022/01/21 08:58:26;;;;;;;12.95;2.85;;;1.30;99.90;;;;;;5073873;28;20040;-81
2022/01/21 09:00:53;;;;;;;15.30;2.17;;;1.10;99.90;;;;;;5054556;28;20039;-82
2022/01/21 09:03:18;;;;;;;11.05;2.60;;;2.00;99.90;;;;;;5067662;28;20043;-84
2022/01/21 09:05:48;;;;;;;14.82;2.20;;;1.20;99.90;;;;;;5070351;28;20084;-82
2022/01/21 09:08:18;;;;;;;13.48;3.42;;;1.30;99.90;;;;;;5060159;28;20074;-81
2022/01/21 09:10:45;;;;;;;15.52;2.33;;;1.30;99.90;;;;;;5084802;28;20036;-81
2022/01/21 09:13:11;;;;;;;15.00;2.45;;;1.50;99.90;;;;;;5082544;28;20032;-82
2022/01/21 09:15:37;;;;;;;9.02;1.70;;;1.60;99.90;;;;;;5071671;28;20044;-83
2022/01/21 09:18:05;;;;;;;14.90;2.78;;;1.50;99.90;;;;;;5069989;28;20096;-81
2022/01/21 09:20:36;;;;;;;14.32;2.05;;;1.50;99.90;;;;;;5065803;28;20040;-81
2022/01/21 09:23:03;;;;;;;10.93;1.90;;;2.40;99.90;;;;;;5077631;28;20079;-81
2022/01/21 09:25:29;;;;;;;13.15;1.80;;;1.60;99.90;;;;;;5055775;28;20044;-82
2022/01/21 09:27:55;;;;;;;27.55;2.63;;;1.80;99.90;;;;;;5078309;28;20040;-82
2022/01/21 09:30:21;;;;;;;12.85;2.50;;;1.80;99.90;;;;;;5066596;28;20105;-81
2022/01/21 09:32:47;;;;;;;21.05;3.30;;;1.80;99.90;;;;;;5080424;28;20469;-78
2022/01/21 09:35:13;;;;;;;13.40;1.83;;;1.80;99.90;;;;;;5088507;28;20051;-79
2022/01/21 09:37:39;;;;;;;13.32;2.22;;;2.00;99.90;;;;;;5061909;28;20088;-79
2022/01/21 09:40:05;;;;;;;;;;;2.40;99.90;;;;;;5071148;28;20127;-79
2022/01/21 09:42:35;;;;;;;9.55;2.35;;;1.90;99.90;;;;;;5071351;28;19916;-79
2022/01/21 09:45:08;;;;;;;11.70;2.90;;;2.00;99.90;;;;;;5059776;28;20040;-81
2022/01/21 09:47:44;;;;;;;12.27;2.28;;;2.00;99.90;;;;;;5046857;28;20316;-81
2022/01/21 09:50:11;;;;;;;13.40;1.98;;;2.20;99.90;;;;;;5062859;28;20110;-81
2022/01/21 09:52:37;;;;;;;10.55;2.50;;;2.10;99.90;;;;;;5049140;28;20060;-81
2022/01/21 09:55:04;;;;;;;11.57;2.95;;;2.60;99.90;;;;;;5043747;28;20056;-81
2022/01/21 09:57:30;;;;;;;12.52;2.55;;;2.30;99.90;;;;;;5048460;28;20047;-80
2022/01/21 09:59:56;;;;;;;16.90;2.38;;;3.20;99.90;;;;;;5053231;28;20043;-78
2022/01/21 10:02:27;;;;;;;21.98;3.08;;;2.40;99.90;;;;;;5064818;28;20072;-81
2022/01/21 10:04:56;;;;;;;14.50;2.30;;;2.50;99.90;;;;;;5057647;28;20048;-80
2022/01/21 10:07:22;;;;;;;13.48;2.40;;;2.60;99.90;;;;;;5058418;28;20047;-79
2022/01/21 10:09:49;;;;;;;16.20;2.78;;;2.60;99.90;;;;;;5071424;28;20051;-79
2022/01/21 10:12:16;;;;;;;23.42;2.67;;;2.70;99.90;;;;;;5057174;28;20494;-84
2022/01/21 10:14:43;;;;;;;15.35;2.80;;;2.70;99.90;;;;;;5062546;28;20035;-81
2022/01/21 10:17:10;;;;;;;16.50;3.42;;;2.80;99.90;;;;;;5058427;28;20067;-84
2022/01/21 10:19:39;;;;;;;8.88;2.70;;;2.80;99.90;;;;;;5090950;28;20500;-83
2022/01/21 10:22:18;;;;;;;11.75;2.15;;;3.40;99.90;;;;;;5083328;28;20047;-84
2022/01/21 10:24:51;;;;;;;33.05;4.05;;;2.90;99.90;;;;;;5061021;28;20048;-83
2022/01/21 10:27:35;;;;;;;17.13;2.22;;;3.60;99.90;;;;;;5077406;28;20048;-83
2022/01/21 10:30:02;;;;;;;14.23;2.22;;;3.00;99.90;;;;;;5077160;28;20048;-84
2022/01/21 10:32:42;;;;;;;25.42;3.05;;;3.10;99.90;;;;;;5077312;28;20036;-83
2022/01/21 10:35:30;;;;;;;23.02;3.35;;;3.20;99.90;;;;;;5077205;28;20808;-83
2022/01/21 10:38:13;;;;;;;12.93;2.35;;;3.30;99.90;;;;;;5077431;28;20470;-84
2022/01/21 10:40:39;;;;;;;16.92;2.20;;;3.40;99.90;;;;;;5060650;28;20056;-83
2022/01/21 10:43:17;;;;;;;10.52;2.13;;;3.50;99.90;;;;;;5043736;28;20062;-83
2022/01/21 10:45:58;;;;;;;17.02;2.38;;;3.70;99.90;;;;;;5077025;28;20067;-83
2022/01/21 10:48:27;;;;;;;11.05;1.85;;;3.80;99.90;;;;;;5074144;28;20084;-83
2022/01/21 10:51:16;;;;;;;10.50;2.45;;;3.90;99.90;;;;;;5040412;28;20107;-85
2022/01/21 10:53:45;;;;;;;16.15;2.30;;;3.80;99.90;;;;;;5057298;28;20032;-83
2022/01/21 10:56:13;;;;;;;11.60;2.28;;;3.80;99.90;;;;;;5040691;28;20036;-83
2022/01/21 10:58:44;;;;;;;17.30;2.38;;;3.80;99.90;;;;;;5056724;28;20048;-84
2022/01/21 11:01:17;;;;;;;10.00;2.17;;;3.80;99.90;;;;;;5061762;28;20823;-82
2022/01/21 11:03:56;;;;;;;11.52;3.15;;;3.80;99.90;;;;;;5067248;28;20044;-84
2022/01/21 11:06:25;;;;;;;19.05;3.22;;;3.80;99.90;;;;;;5044426;28;20048;-84
2022/01/21 11:09:10;;;;;;;11.02;2.40;;;3.80;99.90;;;;;;5039269;28;20072;-86
2022/01/21 11:11:36;;;;;;;11.13;2.40;;;3.90;99.90;;;;;;5060519;28;20119;-78
2022/01/21 11:14:10;;;;;;;14.68;2.90;;;3.90;99.90;;;;;;5046659;28;20166;-83
2022/01/21 11:16:36;;;;;;;14.82;2.78;;;4.00;99.90;;;;;;5062335;28;20044;-85
2022/01/21 11:19:12;;;;;;;12.98;2.47;;;4.00;99.90;;;;;;5084558;28;20044;-82
2022/01/21 11:21:51;;;;;;;13.43;2.63;;;4.00;99.90;;;;;;5069773;28;20067;-82
2022/01/21 11:24:19;;;;;;;7.38;2.15;;;4.10;99.90;;;;;;5068839;28;20044;-80
2022/01/21 11:27:14;;;;;;;15.40;2.53;;;4.10;99.90;;;;;;5066669;28;20466;-78
2022/01/21 11:29:44;;;;;;;20.38;2.38;;;4.20;99.90;;;;;;5083413;28;20059;-81
2022/01/21 11:32:11;;;;;;;14.55;2.47;;;4.50;99.90;;;;;;5068090;28;20154;-77
2022/01/21 11:34:37;;;;;;;15.95;2.65;;;4.30;99.90;;;;;;5048488;28;20036;-77
2022/01/21 11:37:05;;;;;;;16.70;2.58;;;4.40;99.90;;;;;;5065413;28;20036;-79
2022/01/21 11:39:31;;;;;;;16.42;2.70;;;4.40;99.90;;;;;;5060771;28;20059;-82
2022/01/21 11:41:59;;;;;;;13.10;2.45;;;4.90;99.90;;;;;;5062509;28;20383;-84
2022/01/21 11:44:28;;;;;;;16.75;2.70;;;4.50;99.90;;;;;;5043457;28;20055;-85
2022/01/21 11:49:32;;;;;;;14.00;2.65;;;4.60;99.90;;;;;;5058957;28;20048;-80
2022/01/21 11:52:10;;;;;;;18.38;2.17;;;4.60;99.90;;;;;;5057418;28;20048;-89
2022/01/21 11:54:37;;;;;;;20.15;2.50;;;4.70;99.90;;;;;;5062941;28;20161;-81
2022/01/21 11:57:05;;;;;;;10.27;2.45;;;4.70;99.90;;;;;;5061328;28;20040;-79
2022/01/21 11:59:34;;;;;;;16.88;2.90;;;4.70;99.90;;;;;;5042085;28;20481;-79
2022/01/21 12:02:21;;;;;;;18.02;3.08;;;4.80;99.90;;;;;;5068373;28;20052;-81
2022/01/21 12:04:54;;;;;;;17.92;2.72;;;4.80;99.90;;;;;;5072822;28;20055;-80
2022/01/21 12:07:36;;;;;;;24.63;2.90;;;4.90;99.90;;;;;;5075464;28;20048;-79
2022/01/21 12:10:09;;;;;;;14.57;2.53;;;5.00;99.90;;;;;;5072426;28;20036;-79
2022/01/21 12:15:32;;;;;;;19.00;3.40;;;5.00;99.90;;;;;;5071941;28;20055;-78
2022/01/21 12:20:59;;;;;;;14.68;2.83;;;5.10;99.90;;;;;;5091827;28;20060;-79
2022/01/21 12:23:27;;;;;;;28.27;3.70;;;5.10;99.90;;;;;;5070680;28;20394;-79
2022/01/21 12:26:14;;;;;;;15.77;2.42;;;5.10;99.90;;;;;;5070276;28;20045;-79
2022/01/21 12:28:45;;;;;;;18.20;2.65;;;5.10;99.90;;;;;;5061135;28;20147;-81
2022/01/21 12:31:16;;;;;;;19.05;2.88;;;5.10;99.90;;;;;;5076845;28;20050;-77
2022/01/21 12:36:22;;;;;;;20.50;2.92;;;5.30;99.90;;;;;;5065183;28;20048;-80
2022/01/21 12:41:16;;;;;;;19.08;3.22;;;5.20;99.90;;;;;;5070619;28;20459;-75
2022/01/21 12:43:51;;;;;;;20.75;3.45;;;5.30;99.90;;;;;;5054907;28;20036;-75
2022/01/21 12:46:27;;;;;;;16.65;3.40;;;5.30;99.90;;;;;;5053968;28;20534;-75
2022/01/21 12:48:54;;;;;;;13.48;2.75;;;5.30;99.90;;;;;;5055183;28;20083;-76
2022/01/21 12:56:42;;;;;;;16.90;2.40;;;6.10;99.90;;;;;;5054995;28;20127;-75
2022/01/21 12:59:12;;;;;;;12.43;2.00;;;5.50;99.90;;;;;;5071899;28;20079;-76
2022/01/21 13:01:38;;;;;;;15.43;2.28;;;5.50;99.90;;;;;;5054138;28;20037;-76
2022/01/21 13:04:14;;;;;;;20.77;2.35;;;5.60;99.90;;;;;;5054306;28;20109;-75
2022/01/21 13:07:18;;;;;;;14.23;2.58;;;5.60;99.90;;;;;;5038174;28;20041;-75
2022/01/21 13:10:05;;;;;;;12.70;2.78;;;5.60;99.90;;;;;;5054607;28;20477;-76
2022/01/21 13:15:55;;;;;;;15.10;2.22;;;5.70;99.90;;;;;;5056911;28;20049;-75
2022/01/21 13:18:32;;;;;;;16.63;2.40;;;5.70;99.90;;;;;;5071086;28;20428;-75
2022/01/21 13:21:05;;;;;;;13.23;1.92;;;5.90;99.90;;;;;;5071219;28;20040;-75
2022/01/21 13:23:47;;;;;;;13.88;1.90;;;5.90;99.90;;;;;;5074955;28;20546;-76
2022/01/21 13:26:17;;;;;;;11.45;2.25;;;5.70;99.90;;;;;;5074333;28;20048;-75
2022/01/21 13:29:13;;;;;;;10.15;2.05;;;5.80;99.90;;;;;;5072303;28;20082;-75
2022/01/21 13:31:48;;;;;;;21.67;3.60;;;5.80;99.90;;;;;;5053685;28;20044;-79
2022/01/21 13:34:35;;;;;;;9.00;1.60;;;5.90;99.90;;;;;;5070974;28;20090;-74
2022/01/21 13:37:03;;;;;;;9.50;1.63;;;5.80;99.90;;;;;;5065561;28;20043;-74
2022/01/21 13:39:32;;;;;;;13.02;1.73;;;5.90;99.90;;;;;;5096693;28;20116;-76
2022/01/21 13:42:03;;;;;;;12.73;1.77;;;6.00;99.90;;;;;;5072706;28;20036;-75
2022/01/21 13:44:34;;;;;;;12.45;1.98;;;6.00;99.90;;;;;;5066292;28;20036;-75
2022/01/21 13:47:03;;;;;;;11.82;2.08;;;6.00;99.90;;;;;;5061145;28;20093;-77
2022/01/21 13:49:29;;;;;;;12.38;2.25;;;6.00;99.90;;;;;;5061083;28;20039;-72
2022/01/21 13:51:57;;;;;;;17.33;3.30;;;6.10;99.90;;;;;;5062466;28;20041;-77
2022/01/21 13:54:36;;;;;;;13.25;2.72;;;6.00;99.90;;;;;;5061899;28;20545;-79
2022/01/21 13:57:04;;;;;;;13.35;2.13;;;6.00;99.90;;;;;;5049240;28;20477;-82
2022/01/21 13:59:31;;;;;;;10.15;2.08;;;6.00;99.90;;;;;;5068289;28;20092;-77
2022/01/21 14:02:10;;;;;;;12.23;2.47;;;6.00;99.90;;;;;;5065394;28;20051;-79
2022/01/21 14:04:36;;;;;;;10.82;2.22;;;5.90;99.90;;;;;;5065456;28;20051;-78
2022/01/21 14:07:03;;;;;;;9.55;1.90;;;5.90;99.90;;;;;;5067560;28;20121;-77
2022/01/21 14:09:29;;;;;;;25.95;2.63;;;5.90;99.90;;;;;;5066813;28;20118;-76
2022/01/21 14:11:54;;;;;;;17.40;2.33;;;5.90;99.90;;;;;;5070870;28;20115;-79
2022/01/21 14:14:24;;;;;;;19.50;3.90;;;5.80;99.90;;;;;;5066533;28;20125;-80
2022/01/21 14:16:55;;;;;;;14.60;2.42;;;6.00;99.90;;;;;;5054031;28;20071;-79